Station: Port Pirie Airport Aws

  Atmospheric Gas Attenuation - ITU Rec 676-11   --------------- db/100km ---------------
Date Time Temp RH % AH g/m3 Dew Point Wind Direction Speed kph Gust kph Barometer mB Rainfall Since 9am 24GHz 47GHz 76GHz 122GHz 134GHz 241GHz
21 19:00 16.8 59 8.43 8.8 37 46 1008.9 0 19.1 24.6 37.5 98.4 92.2 317.2
21 18:50 16.8 59 8.43 8.8 37 41 1008.7 0 19.1 24.6 37.5 98.4 92.2 317.2
21 18:40 16.9 60 8.63 9.1 37 43 1008.6 0 19.5 24.9 38.2 100.3 94.6 325.6
21 18:30 17.5 55 8.2 8.4 41 52 1008.3 0 18.6 24.1 36.3 95.2 88.5 304.3
21 18:20 17.9 54 8.24 8.5 37 44 1008.1 0 18.6 24.0 36.2 95.1 88.5 304.5
21 18:10 17.7 54 8.15 8.3 32 35 1007.8 0 18.5 23.9 36.0 94.4 87.6 301.3
21 18:00 17.9 52 7.94 7.9 30 48 1007.5 0 18.0 23.5 35.1 92.0 84.8 291.5
21 17:50 17.8 51 7.74 7.5 22 26 1007.3 0 17.6 23.3 34.4 90.2 82.5 283.3
21 17:40 17.5 55 8.2 8.4 28 33 1007.2 0 18.6 24.0 36.2 95.0 88.4 304.0
21 17:30 18.9 45 7.29 6.7 35 61 1007.1 0 16.6 22.3 32.3 84.6 76.0 260.8
21 17:20 20.3 42 7.39 7 26 32 1006.6 0 16.7 22.1 32.1 84.1 75.8 260.3
21 17:10 20.4 40 7.08 6.4 22 24 1006.6 0 16.1 21.6 31.0 81.1 72.2 247.5
21 17:00 20.6 39 6.98 6.2 28 35 1006.5 0 15.9 21.5 30.6 80.0 70.9 242.9
21 16:50 20.8 38 6.88 6 32 37 1006.4 0 15.7 21.3 30.1 78.9 69.6 238.4
21 16:40 21.1 36 6.63 5.5 28 32 1006.2 0 15.1 20.9 29.2 76.3 66.5 227.7
21 16:30 21.9 36 6.95 6.2 33 43 1006.1 0 15.8 21.1 30.0 78.4 69.4 237.8
21 16:20 21.5 32 6.03 4.1 35 43 1006 0 13.8 20.0 27.1 70.6 59.6 203.6
21 16:10 21.6 36 6.83 5.9 24 30 1005.9 0 15.5 21.0 29.7 77.6 68.3 234.0
21 16:00 21.6 35 6.64 5.5 28 37 1005.9 0 15.1 20.7 29.0 75.9 66.2 226.6
21 15:50 21.5 34 6.41 5 28 32 1005.9 0 14.6 20.5 28.3 73.9 63.8 218.1
21 15:40 21.8 31 5.95 3.9 28 32 1005.8 0 13.7 19.8 26.7 69.7 58.6 199.8
21 15:30 22.6 30 6.03 4.2 28 39 1005.9 0 13.8 19.7 26.7 69.7 58.8 200.9
21 15:20 22.6 29 5.83 3.7 32 35 1005.9 0 13.4 19.5 26.1 68.0 56.7 193.5
21 15:10 22.4 29 5.76 3.5 30 32 1006 0 13.3 19.4 25.9 67.5 56.1 191.4
21 15:00 22.2 28 5.5 2.8 30 43 1005.9 0 12.7 19.1 25.1 65.5 53.5 182.2
21 14:50 22.8 28 5.69 3.4 22 28 1006.1 0 13.1 19.2 25.6 66.6 55.1 187.9
21 14:40 22.7 27 5.45 2.8 35 39 1006.2 0 12.6 19.0 24.8 64.7 52.7 179.4
21 14:30 22.9 27 5.52 2.9 33 46 1006.1 0 12.7 19.0 25.0 65.1 53.3 181.5
21 14:20 22.6 27 5.42 2.7 33 39 1006.2 0 12.5 18.9 24.8 64.5 52.5 178.5
21 14:10 22.8 27 5.49 2.8 33 52 1006.2 0 12.7 19.0 24.9 65.0 53.1 180.6
21 14:00 21.8 26 4.99 1.5 37 48 1006.4 0 11.7 18.6 23.7 61.6 48.5 164.5
21 13:50 22.7 27 5.45 2.8 32 39 1006.5 0 12.6 19.0 24.9 64.7 52.7 179.4
21 13:40 22 28 5.43 2.7 33 39 1006.7 0 12.6 19.1 25.0 65.1 53.0 180.2
21 13:30 21.3 28 5.22 2.1 35 50 1006.7 0 12.2 19.0 24.6 63.9 51.2 174.0
21 13:20 22 27 5.24 2.2 32 35 1006.7 0 12.2 18.8 24.4 63.5 51.0 173.3
21 13:10 21.6 29 5.5 2.8 37 43 1006.9 0 12.7 19.3 25.4 66.0 54.0 183.7
21 13:00 22.2 29 5.69 3.3 35 44 1006.9 0 13.1 19.4 25.8 67.2 55.6 189.4
21 12:50 21.3 27 5.03 1.6 41 48 1007 0 11.8 18.7 24.0 62.3 49.3 167.1
21 12:40 21.3 29 5.41 2.6 41 48 1007 0 12.6 19.2 25.2 65.5 53.2 181.0
21 12:30 21.7 29 5.53 2.9 37 52 1007.2 0 12.8 19.3 25.4 66.2 54.3 184.6
21 12:20 21.3 29 5.41 2.6 43 48 1007.2 0 12.6 19.2 25.2 65.5 53.3 181.1
21 12:10 21.7 29 5.53 2.9 39 50 1007.4 0 12.8 19.3 25.4 66.3 54.3 184.7
21 12:00 20.6 28 5.01 1.5 39 50 1007.6 0 11.7 18.9 24.1 62.7 49.5 167.8
21 11:50 20.5 29 5.16 1.9 41 46 1007.7 0 12.1 19.1 24.6 64.1 51.2 173.6
21 11:40 20.9 30 5.46 2.7 35 44 1007.7 0 12.7 19.4 25.5 66.3 54.1 183.9
21 11:30 20.2 28 4.9 1.1 43 56 1007.9 0 11.5 18.8 23.9 62.1 48.6 164.6
21 11:20 20.4 31 5.48 2.7 43 48 1007.9 0 12.7 19.5 25.7 66.9 54.6 185.8
21 11:10 20.7 29 5.22 2 37 50 1007.9 0 12.2 19.1 24.8 64.4 51.7 175.4
21 11:00 20 31 5.36 2.4 43 54 1007.9 0 12.5 19.4 25.4 66.2 53.6 182.1
21 10:50 19.8 30 5.12 1.7 50 56 1007.8 0 12.0 19.2 24.7 64.3 51.2 173.6
21 10:40 19.9 30 5.15 1.8 41 54 1007.8 0 12.1 19.2 24.8 64.4 51.4 174.5
21 10:30 19.8 35 5.98 3.9 41 57 1007.7 0 13.8 20.3 27.5 71.8 60.5 206.2
21 10:20 19.3 33 5.47 2.6 43 54 1007.7 0 12.7 19.7 26.0 67.7 55.2 187.8
21 10:10 19 33 5.38 2.4 43 48 1007.8 0 12.6 19.7 25.8 67.2 54.5 185.1
21 10:00 18.6 34 5.41 2.4 41 54 1008 0 12.6 19.8 26.0 67.8 55.1 187.2
21 09:50 18.7 34 5.44 2.5 41 50 1008 0 12.7 19.8 26.1 68.0 55.3 188.1
21 09:40 18.4 33 5.19 1.9 37 44 1007.9 0 12.2 19.6 25.4 66.0 52.8 179.2
21 09:30 18.3 33 5.16 1.8 43 56 1007.9 0 12.1 19.5 25.3 65.8 52.6 178.3
21 09:20 18.3 33 5.16 1.8 39 54 1008 0 12.1 19.5 25.3 65.8 52.6 178.3
21 09:10 17.9 31 4.73 0.6 41 48 1007.9 0 11.2 19.0 24.0 62.4 48.2 162.8
21 09:00 17.6 32 4.8 0.7 39 50 1007.9 0 11.4 19.2 24.3 63.2 49.1 166.0
21 08:50 17.7 33 4.98 1.2 33 41 1008 0 11.8 19.4 24.9 64.7 51.0 172.7
21 08:40 17 38 5.5 2.6 35 39 1008.1 0 12.9 20.3 26.8 69.9 57.2 194.4
21 08:30 16.7 37 5.26 2 37 48 1008 0 12.4 20.0 26.1 68.0 54.7 185.7
21 08:20 16.4 36 5.02 1.3 37 46 1008 0 11.9 19.7 25.4 66.1 52.3 177.0
21 08:10 16.2 38 5.24 1.9 32 37 1008 0 12.4 20.1 26.2 68.2 54.8 186.0
21 08:00 16 41 5.59 2.8 30 39 1008.1 0 13.1 20.6 27.5 71.6 58.9 200.4
21 07:50 15.4 42 5.52 2.6 30 33 1008 0 13.0 20.7 27.4 71.5 58.6 199.0
21 07:40 15 45 5.77 3.2 26 30 1008.1 0 13.5 21.1 28.4 74.2 61.7 210.2
21 07:30 14.4 51 6.3 4.4 22 28 1008.2 0 14.7 22.0 30.5 79.8 68.5 233.7
21 07:20 13.9 51 6.11 3.9 22 26 1008.2 0 14.3 21.8 30.0 78.5 66.6 227.2
21 07:10 13.4 53 6.16 4 24 28 1008 0 14.4 22.0 30.4 79.4 67.6 230.7
21 07:00 12.1 63 6.76 5.3 15 19 1008 0 15.7 23.3 33.2 86.8 76.2 260.6
21 06:50 12 64 6.82 5.4 17 17 1008.1 0 15.9 23.4 33.4 87.5 77.1 263.6
21 06:40 11.4 70 7.19 6.1 19 20 1008 0 16.7 24.1 35.1 92.0 82.4 282.1
21 06:30 9.2 79 7.06 5.8 17 20 1008 0 16.5 24.5 35.6 93.2 83.0 284.1
21 06:20 8.3 82 6.91 5.4 17 19 1008 0 16.2 24.5 35.4 92.6 82.0 280.4
21 06:10 8 80 6.62 4.8 15 15 1008.1 0 15.6 24.1 34.3 89.9 78.5 268.0
21 06:00 8.1 79 6.58 4.7 15 19 1008.1 0 15.5 24.0 34.1 89.3 77.8 265.8
21 05:50 7.6 75 6.04 3.5 15 15 1008.1 0 14.4 23.3 32.2 84.2 71.3 242.6
21 05:40 8.2 72 6.03 3.5 13 15 1008 0 14.3 23.1 31.9 83.4 70.6 240.3
21 05:30 7.8 73 5.96 3.3 9 13 1008 0 14.2 23.1 31.8 83.1 70.0 238.4
21 05:20 8.3 69 5.82 3 6 7 1008 0 13.9 22.8 31.1 81.2 67.8 230.6
21 05:10 9 62 5.47 2.1 13 15 1007.9 0 13.1 22.1 29.5 76.9 62.8 213.2
21 04:50 9.1 62 5.5 2.2 15 15 1008 0 13.2 22.1 29.6 77.1 63.1 214.3
21 04:40 9.2 63 5.63 2.5 13 15 1008.2 0 13.4 22.3 30.0 78.3 64.7 219.7
21 04:30 9.4 63 5.7 2.7 15 17 1008.1 0 13.6 22.3 30.2 78.8 65.4 222.2
21 04:20 8.8 66 5.75 2.8 13 15 1008 0 13.7 22.5 30.6 79.9 66.5 226.1
21 04:10 8.7 66 5.71 2.7 15 15 1008 0 13.6 22.5 30.5 79.6 66.1 224.6
21 04:00 8.8 66 5.75 2.8 15 17 1008 0 13.7 22.5 30.6 79.9 66.5 226.1
21 03:50 8.6 65 5.59 2.4 17 19 1008.2 0 13.4 22.4 30.1 78.5 64.7 219.6
21 03:40 10.3 62 5.94 3.3 11 11 1008.2 0 14.1 22.5 30.8 80.4 67.6 230.2
21 03:30 10.9 63 6.27 4.1 9 11 1008.2 0 14.7 22.8 31.8 83.1 71.2 242.8
21 03:20 10.7 63 6.19 4 9 11 1008.2 0 14.6 22.8 31.6 82.5 70.4 239.9
21 03:10 10 62 5.83 3.1 13 13 1008.3 0 13.8 22.4 30.5 79.6 66.5 226.3
21 03:00 9.8 64 5.94 3.3 13 17 1008.2 0 14.1 22.6 31.0 80.9 68.0 231.6
21 02:50 9.7 66 6.09 3.7 15 17 1008.3 0 14.4 22.9 31.6 82.5 70.0 238.6
21 02:40 10.8 60 5.93 3.4 13 13 1008.3 0 14.0 22.3 30.5 79.8 67.1 228.3
21 02:30 10.5 64 6.21 4 11 13 1008.4 0 14.6 22.8 31.7 82.9 70.8 241.5
21 02:20 10.1 65 6.15 3.8 11 13 1008.3 0 14.5 22.8 31.6 82.7 70.4 240.0

Last Refresh: 21-Sep-2020 19:05:55

Most of the information presented on this site is sourced from the Bureau of Meteorology.  Copyright in all material sourced from the Bureau of Meteorology resides with the Commonwealth of Australia.